XBR weather

Brockville - Thousand Islands Regional Tackaberry Airport
Brockville, Ontario, Canada

Public forecast

Using degrees Celsius for public forecast. Weather courtesy of forecast.io.

Closest aviation weather report (METAR) to Brockville - Thousand Islands Regional Tackaberry Airport

Closest report is Wheeler Sack Army Air Field, 35.1 nm (65.0 km) S. Retrieved 2019/10/20 00:56 UTC (54 minutes ago):

KGTB 200056Z AUTO 00000KT 10SM CLR 03/01 A3000 RMK AO2 SLP166 T00340006

Closest aviation forecast (TAF) to Brockville - Thousand Islands Regional Tackaberry Airport

Forecast is more than 12 hours old.

Closest forecast is Wheeler Sack Army Air Field, 35.1 nm (65.0 km) S. Retrieved 2019/10/19 09:09 UTC (17 hours ago):

TAF KGTB 190900Z 1909/2015 VRB06KT 6000 BR SCT025 QNH3000INS BECMG 1914/1915 VRB06KT 9999 NSW SCT030 QNH3000INS BECMG 1917/1918 VRB06KT 9999 FEW200 QNH3003INS BECMG 2000/2001 VRB06KT 9999 SCT030 QNH2999INS TX11/1918Z TNM01/1909Z LAST NO AMDS AFT 1909 NEXT 2104